createdAt,value
2024-04-19T00:00:29.607Z,68.46
2024-04-19T00:05:33.283Z,69.30
2024-04-19T00:10:34.321Z,69.18
2024-04-19T00:15:35.426Z,69.09
2024-04-19T00:20:39.128Z,69.02
2024-04-19T00:25:43.044Z,69.32
2024-04-19T00:30:44.697Z,68.71
2024-04-19T00:35:48.487Z,69.01
2024-04-19T00:40:49.463Z,69.06
2024-04-19T00:45:52.302Z,70.29
2024-04-19T00:50:59.708Z,70.90
2024-04-19T00:56:02.878Z,71.83
2024-04-19T01:01:08.768Z,71.16
2024-04-19T01:06:12.656Z,71.52
2024-04-19T01:11:13.719Z,71.39
2024-04-19T01:16:16.625Z,71.49
2024-04-19T01:21:29.661Z,72.64
2024-04-19T01:26:33.346Z,71.89
2024-04-19T01:31:34.409Z,71.18
2024-04-19T01:36:35.533Z,74.39
2024-04-19T01:41:39.348Z,73.55
2024-04-19T01:46:40.544Z,72.91
2024-04-19T01:51:41.559Z,72.64
2024-04-19T01:56:45.273Z,71.59
2024-04-19T02:01:46.325Z,72.16
2024-04-19T02:06:47.408Z,71.62
2024-04-19T02:12:08.733Z,72.20
2024-04-19T02:17:09.802Z,71.13
2024-04-19T02:22:10.822Z,70.03
2024-04-19T02:27:41.513Z,69.38
2024-04-19T02:32:42.683Z,69.79
2024-04-19T02:37:43.784Z,69.33
2024-04-19T02:42:47.586Z,69.58
2024-04-19T02:47:48.625Z,69.14
2024-04-19T02:52:49.672Z,70.09
2024-04-19T02:57:53.450Z,70.16
2024-04-19T03:03:14.939Z,69.63
2024-04-19T03:08:15.934Z,69.51
2024-04-19T03:13:19.842Z,68.87
2024-04-19T03:18:21.086Z,70.66
2024-04-19T03:23:22.139Z,72.68
2024-04-19T03:28:25.896Z,71.91
2024-04-19T03:33:27.063Z,72.26
2024-04-19T03:38:29.553Z,70.98
2024-04-19T03:43:34.596Z,71.51
2024-04-19T03:48:35.620Z,71.73
2024-04-19T03:53:36.599Z,71.23
2024-04-19T03:58:40.295Z,70.46
2024-04-19T04:03:41.441Z,69.91
2024-04-19T04:08:42.448Z,69.82
2024-04-19T04:13:46.390Z,69.81
2024-04-19T04:18:47.469Z,69.50
2024-04-19T04:23:48.534Z,70.15
2024-04-19T04:28:52.447Z,70.34
2024-04-19T04:33:57.207Z,71.17
2024-04-19T04:39:01.635Z,70.93
2024-04-19T04:44:08.777Z,69.96
2024-04-19T04:49:11.430Z,71.03
2024-04-19T04:54:12.466Z,70.52
2024-04-19T04:59:17.075Z,70.15
2024-04-19T05:04:18.153Z,70.02
2024-04-19T05:09:19.409Z,69.80
2024-04-19T05:14:23.139Z,70.41
2024-04-19T05:19:29.869Z,70.06
2024-04-19T05:24:32.884Z,69.96
2024-04-19T05:29:38.845Z,70.19
2024-04-19T05:34:39.807Z,70.45
2024-04-19T05:39:41.281Z,71.81
2024-04-19T05:44:44.997Z,71.14
2024-04-19T05:49:45.911Z,70.41
2024-04-19T05:54:47.031Z,70.44
2024-04-19T05:59:50.657Z,70.58
2024-04-19T06:04:51.638Z,69.85
2024-04-19T06:09:52.704Z,69.21
2024-04-19T06:14:56.317Z,68.86
2024-04-19T06:19:57.533Z,67.55
2024-04-19T06:24:58.821Z,67.26
2024-04-19T06:30:04.508Z,66.12
2024-04-19T06:35:06.514Z,66.20
2024-04-19T06:40:09.118Z,64.84
2024-04-19T06:45:15.999Z,64.82
2024-04-19T06:50:38.221Z,63.80
2024-04-19T07:01:19.308Z,75.99
2024-04-19T07:06:30.310Z,63.20
2024-04-19T07:11:39.532Z,63.05
2024-04-19T07:16:43.407Z,62.58
2024-04-19T07:21:44.648Z,62.95
2024-04-19T07:26:48.946Z,62.16
2024-04-19T07:31:52.826Z,61.91
2024-04-19T07:36:54.783Z,60.85
2024-04-19T07:41:57.164Z,60.83
2024-04-19T07:47:01.618Z,60.89
2024-04-19T07:52:03.432Z,60.33
2024-04-19T07:57:04.622Z,59.84
2024-04-19T08:02:08.349Z,58.42
2024-04-19T08:07:24.455Z,59.62
2024-04-19T08:12:29.683Z,58.24
2024-04-19T08:17:36.928Z,56.81
2024-04-19T08:22:37.826Z,57.32
2024-04-19T08:27:44.204Z,56.92
2024-04-19T08:32:49.077Z,53.04
2024-04-19T08:37:52.467Z,53.39
2024-04-19T08:42:56.992Z,52.59
2024-04-19T08:48:02.670Z,50.18
2024-04-19T08:53:15.392Z,48.11
2024-04-19T08:58:19.659Z,45.86
2024-04-19T09:03:23.479Z,45.39
2024-04-19T09:08:24.727Z,42.72
2024-04-19T09:13:25.663Z,41.16
2024-04-19T09:18:30.146Z,39.75
2024-04-19T09:23:31.132Z,36.26
2024-04-19T09:28:33.129Z,34.94
2024-04-19T09:33:36.946Z,34.16
2024-04-19T09:38:41.335Z,32.96
2024-04-19T09:43:43.890Z,31.40
2024-04-19T09:48:51.798Z,30.82
2024-04-19T09:53:54.307Z,30.18
2024-04-19T09:58:56.626Z,30.02
2024-04-19T10:04:10.302Z,28.26
2024-04-19T10:09:14.885Z,27.10
2024-04-19T10:14:16.451Z,25.87
2024-04-19T10:19:21.044Z,23.89
2024-04-19T10:24:23.707Z,25.11
2024-04-19T10:29:27.183Z,26.25
2024-04-19T10:34:34.280Z,24.61
2024-04-19T10:39:35.679Z,24.72
2024-04-19T10:44:36.930Z,24.02
2024-04-19T10:49:40.381Z,23.45
2024-04-19T10:54:41.483Z,23.18
2024-04-19T10:59:42.790Z,22.91
2024-04-19T11:04:48.266Z,23.10
2024-04-19T11:09:49.342Z,21.81
2024-04-19T11:14:50.277Z,21.25
2024-04-19T11:19:53.607Z,19.41
2024-04-19T11:24:58.521Z,21.05
2024-04-19T11:29:59.632Z,19.99
2024-04-19T11:35:12.208Z,19.45
2024-04-19T11:40:24.018Z,18.49
2024-04-19T11:45:25.260Z,19.37
2024-04-19T11:50:32.486Z,16.55
2024-04-19T11:55:33.650Z,16.15
2024-04-19T12:00:38.318Z,16.07
2024-04-19T12:05:42.645Z,17.15
2024-04-19T12:10:43.976Z,18.85
2024-04-19T12:16:20.289Z,16.85
2024-04-19T12:21:09.547Z,15.89
2024-04-19T12:31:12.029Z,14.76
2024-04-19T12:36:19.404Z,15.67
2024-04-19T12:41:20.763Z,16.90
2024-04-19T12:46:22.326Z,14.99
2024-04-19T12:51:29.103Z,16.00
2024-04-19T12:56:30.322Z,15.45
2024-04-19T13:01:31.383Z,15.44
2024-04-19T13:06:35.687Z,16.59
2024-04-19T13:11:36.833Z,15.09
2024-04-19T13:16:38.137Z,15.00
2024-04-19T13:21:42.172Z,15.67
2024-04-19T13:26:43.503Z,16.64
2024-04-19T13:31:46.227Z,16.29
2024-04-19T13:36:50.698Z,16.49
2024-04-19T13:41:51.977Z,18.00
2024-04-19T13:46:53.172Z,18.02
2024-04-19T13:51:57.235Z,18.93
2024-04-19T13:56:58.291Z,19.38
2024-04-19T14:01:59.788Z,19.06
2024-04-19T14:07:03.566Z,18.90
2024-04-19T14:12:04.585Z,19.25
2024-04-19T14:17:05.711Z,17.39
2024-04-19T14:22:09.949Z,18.39
2024-04-19T14:27:11.142Z,17.29
2024-04-19T14:32:12.117Z,18.99
2024-04-19T14:37:16.522Z,19.52
2024-04-19T14:42:18.670Z,19.04
2024-04-19T14:47:19.838Z,19.57
2024-04-19T14:52:23.507Z,20.46
2024-04-19T14:57:25.452Z,19.14
2024-04-19T15:02:26.824Z,20.87
2024-04-19T15:07:30.611Z,21.19
2024-04-19T15:12:33.437Z,21.27
2024-04-19T15:17:34.612Z,22.30
2024-04-19T15:22:38.197Z,21.14
2024-04-19T15:27:39.135Z,20.90
2024-04-19T15:32:40.209Z,20.55
2024-04-19T15:37:44.292Z,20.70
2024-04-19T15:42:45.153Z,19.64
2024-04-19T15:47:46.278Z,18.07
2024-04-19T15:52:49.830Z,20.70
2024-04-19T15:57:50.976Z,20.29
2024-04-19T16:02:52.000Z,20.25
2024-04-19T16:07:55.694Z,20.59
2024-04-19T16:12:56.720Z,21.11
2024-04-19T16:17:58.003Z,21.54
2024-04-19T16:23:01.618Z,21.75
2024-04-19T16:28:02.775Z,22.46
2024-04-19T16:33:04.007Z,22.43
2024-04-19T16:38:07.965Z,22.81
2024-04-19T16:43:09.634Z,22.70
2024-04-19T16:48:11.414Z,23.06
2024-04-19T16:53:15.651Z,23.88
2024-04-19T16:58:19.306Z,24.09
2024-04-19T17:03:21.147Z,25.23
2024-04-19T17:08:25.299Z,25.77
2024-04-19T17:13:26.438Z,26.45
2024-04-19T17:18:30.104Z,27.60
2024-04-19T17:23:33.775Z,28.03
2024-04-19T17:28:34.758Z,28.11
2024-04-19T17:33:35.970Z,28.77
2024-04-19T17:38:40.332Z,29.27
2024-04-19T17:43:41.434Z,29.99
2024-04-19T17:48:42.519Z,30.70
2024-04-19T17:53:47.635Z,31.22
2024-04-19T17:58:48.634Z,31.68
2024-04-19T18:03:49.639Z,32.08
2024-04-19T18:08:53.324Z,32.46
2024-04-19T18:13:54.178Z,32.42
2024-04-19T18:18:55.733Z,33.25
2024-04-19T18:24:02.526Z,33.25
2024-04-19T18:29:04.724Z,33.37
2024-04-19T18:34:08.138Z,33.37
2024-04-19T18:39:11.640Z,34.26
2024-04-19T18:44:15.213Z,34.19
2024-04-19T18:49:16.766Z,34.45
2024-04-19T18:54:20.443Z,35.23
2024-04-19T18:59:22.555Z,35.27
2024-04-19T19:04:24.300Z,35.49
2024-04-19T19:09:28.554Z,35.57
2024-04-19T19:14:32.606Z,36.11
2024-04-19T19:19:37.966Z,36.38
2024-04-19T19:24:43.309Z,36.68
2024-04-19T19:29:44.159Z,37.37
2024-04-19T19:34:48.201Z,37.93
2024-04-19T19:39:54.260Z,38.57
2024-04-19T19:44:58.293Z,38.76
2024-04-19T19:50:04.431Z,39.93
2024-04-19T19:55:10.280Z,40.60
2024-04-19T20:00:28.140Z,40.96
2024-04-19T20:05:44.093Z,41.70
2024-04-19T20:10:47.870Z,41.66
2024-04-19T20:15:50.593Z,41.83
2024-04-19T20:20:54.149Z,41.76
2024-04-19T20:25:58.967Z,42.79
2024-04-19T20:31:00.922Z,43.38
2024-04-19T20:36:01.949Z,43.79
2024-04-19T20:41:05.616Z,43.72
2024-04-19T20:46:06.728Z,44.12
2024-04-19T20:51:08.240Z,44.73
2024-04-19T20:56:12.548Z,44.95
2024-04-19T21:01:15.813Z,45.21
2024-04-19T21:06:19.519Z,45.25
2024-04-19T21:11:23.487Z,44.64
2024-04-19T21:16:24.542Z,44.92
2024-04-19T21:21:27.319Z,46.03
2024-04-19T21:26:31.023Z,45.73
2024-04-19T21:31:31.980Z,46.26
2024-04-19T21:36:36.726Z,46.71
2024-04-19T21:41:40.476Z,47.40
2024-04-19T21:46:41.498Z,48.00
2024-04-19T21:51:43.540Z,48.79
2024-04-19T21:56:47.082Z,48.72
2024-04-19T22:01:48.129Z,48.62
2024-04-19T22:06:49.287Z,49.38
2024-04-19T22:11:52.962Z,49.26
2024-04-19T22:16:54.043Z,49.84
2024-04-19T22:21:55.153Z,50.75
2024-04-19T22:27:02.190Z,51.55
2024-04-19T22:32:03.148Z,52.49
2024-04-19T22:37:04.495Z,52.76
2024-04-19T22:42:08.919Z,53.23
2024-04-19T22:47:10.132Z,55.08
2024-04-19T22:52:11.498Z,56.21
2024-04-19T22:57:15.131Z,57.48
2024-04-19T23:02:16.314Z,56.97
2024-04-19T23:07:17.228Z,57.13
2024-04-19T23:12:21.003Z,59.17
2024-04-19T23:17:23.289Z,59.55
2024-04-19T23:22:24.425Z,60.35
2024-04-19T23:27:28.063Z,61.07
2024-04-19T23:32:29.123Z,60.87
2024-04-19T23:37:30.041Z,61.68
2024-04-19T23:42:34.016Z,61.70
2024-04-19T23:47:35.230Z,60.75
2024-04-19T23:52:36.325Z,60.66
2024-04-19T23:57:40.012Z,59.75
